createdAt,value
2023-01-19T01:20:28.191Z,100208.63
2023-01-19T01:22:55.877Z,100209.85
2023-01-19T01:25:24.069Z,100209.33
2023-01-19T01:27:51.437Z,100213.07
2023-01-19T01:30:18.929Z,100218.55
2023-01-19T01:32:46.105Z,100216.30
2023-01-19T01:35:13.580Z,100217.14
2023-01-19T01:37:40.900Z,100219.53
2023-01-19T01:40:08.794Z,100217.63
2023-01-19T01:42:35.980Z,100219.33
2023-01-19T01:45:06.440Z,100222.56
2023-01-19T01:47:37.220Z,100227.36
2023-01-19T01:50:14.258Z,100228.38
2023-01-19T01:53:07.656Z,100228.39
2023-01-19T01:55:33.160Z,100217.40
2023-01-19T01:58:04.972Z,100212.61
2023-01-19T02:00:52.348Z,100217.75
2023-01-19T02:03:19.657Z,100216.56
2023-01-19T02:05:46.801Z,100206.11
2023-01-19T02:08:43.676Z,100215.88
2023-01-19T02:11:29.530Z,100212.98
2023-01-19T02:13:57.511Z,100220.02
2023-01-19T02:16:24.760Z,100212.49
2023-01-19T02:18:52.661Z,100213.55
2023-01-19T02:21:53.078Z,100217.70
2023-01-19T02:24:20.446Z,100227.15
2023-01-19T02:26:48.142Z,100225.77
2023-01-19T02:29:20.310Z,100220.81
2023-01-19T02:31:48.023Z,100222.36
2023-01-19T02:34:17.019Z,100228.02
2023-01-19T02:37:22.826Z,100231.61
2023-01-19T02:39:52.492Z,100234.20
2023-01-19T02:42:21.681Z,100237.13
2023-01-19T02:44:49.538Z,100234.39
2023-01-19T02:47:16.662Z,100232.50
2023-01-19T02:49:43.777Z,100235.24
2023-01-19T02:52:18.044Z,100229.06
2023-01-19T02:55:00.428Z,100231.98
2023-01-19T02:57:36.227Z,100227.17
2023-01-19T03:00:14.528Z,100223.39
2023-01-19T03:02:47.958Z,100230.77
2023-01-19T03:05:24.465Z,100234.70
2023-01-19T03:08:16.641Z,100234.88
2023-01-19T03:11:01.640Z,100240.53
2023-01-19T03:13:39.649Z,100240.67
2023-01-19T03:16:22.908Z,100237.05
2023-01-19T03:18:54.373Z,100242.02
2023-01-19T03:21:24.425Z,100246.11
2023-01-19T03:23:51.655Z,100243.19
2023-01-19T03:26:23.134Z,100248.85
2023-01-19T03:28:50.747Z,100255.70
2023-01-19T03:31:23.475Z,100257.57
2023-01-19T03:33:52.618Z,100260.30
2023-01-19T03:37:05.146Z,100264.73
2023-01-19T03:39:32.942Z,100270.20
2023-01-19T03:42:05.466Z,100270.21
2023-01-19T03:44:34.594Z,100273.14
2023-01-19T03:47:01.706Z,100274.69
2023-01-19T03:49:31.638Z,100277.10
2023-01-19T03:51:59.283Z,100283.63
2023-01-19T03:54:26.985Z,100279.52
2023-01-19T03:56:54.411Z,100280.35
2023-01-19T03:59:22.242Z,100279.11
2023-01-19T04:01:49.553Z,100281.33
2023-01-19T04:04:17.101Z,100290.75
2023-01-19T04:06:44.294Z,100280.95
2023-01-19T04:09:11.574Z,100282.64
2023-01-19T04:11:38.834Z,100281.41
2023-01-19T04:14:06.236Z,100287.89
2023-01-19T04:16:33.717Z,100287.86
2023-01-19T04:19:00.896Z,100284.06
2023-01-19T04:21:28.067Z,100283.54
2023-01-19T04:23:56.340Z,100285.76
2023-01-19T04:26:24.333Z,100282.33
2023-01-19T04:28:52.880Z,100288.50
2023-01-19T04:31:20.771Z,100296.92
2023-01-19T04:33:48.171Z,100303.61
2023-01-19T04:36:15.578Z,100294.04
2023-01-19T04:38:43.422Z,100291.81
2023-01-19T04:41:11.190Z,100295.44
2023-01-19T04:43:38.685Z,100305.05
2023-01-19T04:46:07.056Z,100303.20
2023-01-19T04:48:35.708Z,100308.05
2023-01-19T04:51:03.465Z,100299.52
2023-01-19T04:53:31.237Z,100313.45
2023-01-19T04:56:00.157Z,100317.77
2023-01-19T04:58:27.728Z,100312.82
2023-01-19T05:00:55.366Z,100324.17
2023-01-19T05:03:24.372Z,100323.70
2023-01-19T05:05:52.860Z,100323.90
2023-01-19T05:08:20.472Z,100326.70
2023-01-19T05:10:50.726Z,100316.59
2023-01-19T05:13:18.725Z,100323.66
2023-01-19T05:15:46.012Z,100330.92
2023-01-19T05:18:13.581Z,100335.23
2023-01-19T05:20:41.418Z,100331.49
2023-01-19T05:23:08.979Z,100337.52
2023-01-19T05:25:36.263Z,100338.23
2023-01-19T05:28:03.849Z,100336.52
2023-01-19T05:30:31.069Z,100342.38
2023-01-19T05:32:58.877Z,100343.42
2023-01-19T05:35:35.723Z,100344.64
2023-01-19T05:38:04.232Z,100351.15
2023-01-19T05:40:32.042Z,100355.80
2023-01-19T05:43:01.666Z,100358.19
2023-01-19T05:45:29.385Z,100359.58
2023-01-19T05:47:56.765Z,100363.00
2023-01-19T05:50:23.965Z,100365.58
2023-01-19T05:52:53.684Z,100373.84
2023-01-19T05:55:21.437Z,100374.70
2023-01-19T05:57:48.618Z,100374.88
2023-01-19T06:00:16.328Z,100366.80
2023-01-19T06:02:43.882Z,100370.05
2023-01-19T06:05:11.777Z,100374.69
2023-01-19T06:07:39.378Z,100378.47
2023-01-19T06:10:07.319Z,100381.73
2023-01-19T06:12:34.909Z,100383.64
2023-01-19T06:15:02.348Z,100389.81
2023-01-19T06:17:32.473Z,100395.52
2023-01-19T06:19:59.767Z,100393.46
2023-01-19T06:22:26.986Z,100403.79
2023-01-19T06:24:54.692Z,100409.13
2023-01-19T06:27:21.813Z,100414.63
2023-01-19T06:29:49.075Z,100419.46
2023-01-19T06:32:16.648Z,100425.48
2023-01-19T06:34:44.116Z,100428.92
2023-01-19T06:37:11.994Z,100425.50
2023-01-19T06:39:41.413Z,100426.55
2023-01-19T06:42:09.065Z,100427.42
2023-01-19T06:44:36.656Z,100422.77
2023-01-19T06:47:15.553Z,100436.64
2023-01-19T06:49:43.263Z,100432.69
2023-01-19T06:52:16.204Z,100437.83
2023-01-19T06:54:45.281Z,100436.77
2023-01-19T06:57:14.751Z,100439.19
2023-01-19T06:59:41.939Z,100433.52
2023-01-19T07:02:26.370Z,100446.40
2023-01-19T07:04:56.031Z,100437.83
2023-01-19T07:07:24.032Z,100431.48
2023-01-19T07:09:53.840Z,100442.87
2023-01-19T07:12:22.304Z,100433.45
2023-01-19T07:14:49.982Z,100441.52
2023-01-19T07:17:17.143Z,100429.67
2023-01-19T07:19:44.500Z,100431.57
2023-01-19T07:22:11.745Z,100428.65
2023-01-19T07:24:39.083Z,100426.23
2023-01-19T07:27:06.243Z,100425.05
2023-01-19T07:29:35.595Z,100424.20
2023-01-19T07:32:03.009Z,100429.55
2023-01-19T07:34:30.318Z,100427.55
2023-01-19T12:20:31.189Z,100387.86
2023-01-19T12:23:13.444Z,100375.95
2023-01-19T12:26:00.258Z,100386.63
2023-01-19T12:28:32.686Z,100388.38
2023-01-19T12:31:00.669Z,100385.95
2023-01-19T12:33:37.939Z,100388.71
2023-01-19T12:36:05.389Z,100400.67
2023-01-19T12:38:52.963Z,100394.99
2023-01-19T12:41:24.208Z,100396.69
2023-01-19T12:44:10.117Z,100408.23
2023-01-19T12:46:37.455Z,100406.75
2023-01-19T12:49:06.610Z,100410.48
2023-01-19T12:51:33.913Z,100410.06
2023-01-19T12:54:01.395Z,100411.02
2023-01-19T12:56:33.264Z,100411.50
2023-01-19T12:59:00.723Z,100415.23
2023-01-19T13:01:27.988Z,100412.34
2023-01-19T13:03:59.897Z,100413.38
2023-01-19T13:07:10.793Z,100409.57
2023-01-19T13:09:38.681Z,100410.41
2023-01-19T13:12:32.325Z,100414.88
2023-01-19T13:15:28.496Z,100408.64
2023-01-19T13:17:55.657Z,100411.77
2023-01-19T13:21:01.638Z,100407.99
2023-01-19T13:23:42.121Z,100402.55
2023-01-19T13:26:13.160Z,100398.96
2023-01-19T13:28:44.752Z,100404.73
2023-01-19T13:31:12.487Z,100401.32
2023-01-19T13:33:47.435Z,100402.39
2023-01-19T13:36:30.542Z,100401.92
2023-01-19T13:38:59.518Z,100404.55
2023-01-19T13:41:29.408Z,100412.70
2023-01-19T13:44:13.564Z,100412.92
2023-01-19T13:46:40.865Z,100409.52
2023-01-19T13:49:20.125Z,100415.78
2023-01-19T13:52:06.342Z,100420.31
2023-01-19T13:54:33.490Z,100424.34
2023-01-19T13:57:00.778Z,100428.99
2023-01-19T13:59:27.911Z,100428.67
2023-01-19T14:01:55.072Z,100433.70
2023-01-19T14:04:32.442Z,100436.14
2023-01-19T14:07:02.871Z,100434.44
2023-01-19T14:09:30.250Z,100441.02
2023-01-19T14:12:10.788Z,100437.23
2023-01-19T14:14:38.264Z,100440.87
2023-01-19T14:17:05.528Z,100442.77
2023-01-19T14:19:47.992Z,100444.69
2023-01-19T14:22:15.261Z,100441.06
2023-01-19T14:24:42.474Z,100440.20
2023-01-19T14:27:19.395Z,100440.23
2023-01-19T14:29:47.731Z,100440.05
2023-01-19T14:32:16.864Z,100442.81
2023-01-19T14:34:48.273Z,100444.36
2023-01-19T14:37:28.175Z,100438.68
2023-01-19T14:40:01.504Z,100440.22
2023-01-19T14:43:08.916Z,100437.13
2023-01-19T14:45:41.528Z,100437.81
2023-01-19T14:48:18.180Z,100445.05
2023-01-19T14:50:57.620Z,100443.15
2023-01-19T14:53:30.090Z,100444.69
2023-01-19T14:56:02.224Z,100447.45
2023-01-19T14:58:31.821Z,100445.37
2023-01-19T15:00:59.180Z,100443.14
2023-01-19T15:03:42.678Z,100445.54
2023-01-19T15:06:16.340Z,100452.07
2023-01-19T15:08:43.542Z,100446.73
2023-01-19T15:11:23.361Z,100449.48
2023-01-19T15:13:50.778Z,100442.77
2023-01-19T15:16:18.128Z,100447.58
2023-01-19T15:18:45.269Z,100444.13
2023-01-19T15:21:16.295Z,100446.70
2023-01-19T15:23:43.563Z,100447.55
2023-01-19T15:26:12.263Z,100443.06
2023-01-19T15:28:39.406Z,100441.16
2023-01-19T15:31:06.527Z,100445.27
2023-01-19T15:33:34.718Z,100457.29
2023-01-19T15:36:02.047Z,100456.91
2023-01-19T15:38:29.322Z,100457.59
2023-01-19T15:40:56.373Z,100460.66
2023-01-19T15:43:23.569Z,100454.45
2023-01-19T15:46:01.097Z,100454.42
2023-01-19T15:48:28.448Z,100452.70
2023-01-19T15:50:55.701Z,100455.94
2023-01-19T15:53:24.350Z,100460.90
2023-01-19T15:55:52.596Z,100462.77
2023-01-19T15:58:20.830Z,100467.07
2023-01-19T16:00:58.245Z,100464.11
2023-01-19T16:03:25.731Z,100474.61
2023-01-19T16:05:52.886Z,100475.09
2023-01-19T19:18:55.158Z,100536.26
2023-01-19T19:21:24.121Z,100543.48
2023-01-19T19:23:55.309Z,100551.69
2023-01-19T19:26:22.507Z,100547.55
2023-01-19T19:28:49.596Z,100547.35
2023-01-19T19:31:20.810Z,100551.09
2023-01-19T19:33:48.916Z,100552.10
2023-01-19T19:36:16.215Z,100547.77
2023-01-19T19:38:44.697Z,100559.23
2023-01-19T19:41:13.007Z,100564.34
2023-01-19T19:43:40.115Z,100561.56
2023-01-19T19:46:09.715Z,100562.58
2023-01-19T19:48:39.107Z,100556.42
2023-01-19T19:51:18.411Z,100559.88
2023-01-19T19:53:48.421Z,100548.39
2023-01-19T19:56:19.966Z,100548.89
2023-01-19T19:58:47.262Z,100542.55
2023-01-19T20:01:27.654Z,100550.27
2023-01-19T20:04:00.228Z,100546.85
2023-01-19T20:06:27.482Z,100550.46
2023-01-19T20:08:55.567Z,100552.39
2023-01-19T20:11:24.421Z,100549.33
2023-01-19T20:13:51.584Z,100564.97
2023-01-19T20:16:20.307Z,100567.25
2023-01-19T20:18:50.966Z,100562.29
2023-01-19T20:21:19.954Z,100566.05
2023-01-19T20:23:47.631Z,100572.40
2023-01-19T20:26:15.666Z,100576.34
2023-01-19T20:28:42.840Z,100573.23
2023-01-19T20:31:10.771Z,100578.52
2023-01-19T20:33:37.848Z,100577.14
2023-01-19T20:36:05.281Z,100574.20
2023-01-19T20:38:32.447Z,100568.52
2023-01-19T20:40:59.675Z,100578.45
2023-01-19T20:43:26.752Z,100580.33
2023-01-19T20:45:53.994Z,100577.05
2023-01-19T20:48:21.166Z,100575.30
2023-01-19T20:50:48.252Z,100583.33
2023-01-19T20:53:15.345Z,100582.29
2023-01-19T20:55:42.593Z,100581.20
2023-01-19T20:58:09.788Z,100589.73
2023-01-19T21:00:36.852Z,100593.80
2023-01-19T21:03:04.463Z,100593.39
2023-01-19T21:05:31.613Z,100592.33
2023-01-19T21:07:58.834Z,100589.38
2023-01-19T21:10:26.606Z,100589.52
2023-01-19T21:12:53.677Z,100589.66
2023-01-19T21:15:20.770Z,100595.32
2023-01-19T21:17:47.877Z,100596.33
2023-01-19T21:20:15.026Z,100598.72
2023-01-19T21:22:42.110Z,100599.74
2023-01-19T21:25:09.602Z,100591.86
2023-01-19T21:27:36.945Z,100600.77
2023-01-19T21:30:06.151Z,100603.87
2023-01-19T21:32:33.205Z,100609.01
2023-01-19T21:35:00.298Z,100602.52
2023-01-19T21:37:30.602Z,100612.62
2023-01-19T21:39:57.781Z,100608.66
2023-01-19T21:42:24.912Z,100605.24
2023-01-19T21:44:52.146Z,100609.69
2023-01-19T21:47:19.244Z,100612.80
2023-01-19T21:49:46.686Z,100608.00
2023-01-19T21:52:13.779Z,100610.39
2023-01-19T21:54:40.960Z,100605.41
2023-01-19T21:57:08.019Z,100602.82
2023-01-19T21:59:35.218Z,100602.61
2023-01-19T22:02:02.550Z,100605.48
2023-01-19T22:04:29.989Z,100604.78
2023-01-19T22:06:57.054Z,100606.48
2023-01-19T22:09:24.303Z,100604.04
2023-01-19T22:11:51.419Z,100602.48
2023-01-19T22:14:18.677Z,100601.56
2023-01-19T22:16:45.823Z,100598.95
2023-01-19T22:19:14.561Z,100600.64
2023-01-19T22:21:41.807Z,100601.80
2023-01-19T22:24:09.077Z,100601.60
2023-01-19T22:26:37.140Z,100601.43
2023-01-19T22:29:04.874Z,100602.27
2023-01-19T22:31:32.341Z,100601.18
2023-01-19T22:33:59.730Z,100598.23
2023-01-19T22:36:28.900Z,100597.49
2023-01-19T22:39:00.582Z,100601.39
2023-01-19T22:41:35.372Z,100599.81
2023-01-19T22:44:04.515Z,100603.20
2023-01-19T22:46:32.838Z,100608.32
2023-01-19T22:49:00.001Z,100610.88
2023-01-19T22:51:28.623Z,100608.65
2023-01-19T22:53:55.782Z,100603.17
2023-01-19T22:56:24.471Z,100611.23
2023-01-19T22:58:51.710Z,100618.29
2023-01-19T23:01:23.478Z,100621.36
2023-01-19T23:03:50.746Z,100630.61
2023-01-19T23:06:19.338Z,100623.57
2023-01-19T23:08:46.563Z,100614.46
2023-01-19T23:11:15.564Z,100617.85
2023-01-19T23:13:42.816Z,100621.08
2023-01-19T23:16:10.163Z,100619.00
2023-01-19T23:18:37.348Z,100612.82
2023-01-19T23:21:15.826Z,100612.80
2023-01-19T23:23:43.332Z,100608.00
2023-01-19T23:26:15.181Z,100619.79
2023-01-19T23:28:42.354Z,100619.23
2023-01-19T23:31:22.619Z,100626.02
2023-01-19T23:33:50.640Z,100622.73
2023-01-19T23:36:19.454Z,100623.38
2023-01-19T23:38:55.293Z,100625.59
2023-01-19T23:41:22.805Z,100625.45
2023-01-19T23:43:50.070Z,100621.36
2023-01-19T23:46:17.438Z,100631.99
2023-01-19T23:48:44.725Z,100629.26
2023-01-19T23:51:14.023Z,100633.56
2023-01-19T23:53:41.394Z,100631.35
2023-01-19T23:56:25.649Z,100637.86
2023-01-19T23:58:57.787Z,100640.09
